Time;durP1;ratioP1;P1;durP2;ratioP2;P2;SDS_P1;SDS_P2;PMS_P1;PMS_P2;Temp;Humidity;BMP_temperature;BMP_pressure;BME280_temperature;BME280_humidity;BME280_pressure;Samples;Min_cycle;Max_cycle;Signal;HPM_P1;HPM_P2
2023/04/13 03:05:43;;;;;;;6.15;1.40;;;;;;;5.10;100.00;99456.03;4970159;28;20120;-92
2023/04/13 03:12:02;;;;;;;5.60;1.45;;;;;;;5.11;100.00;99482.31;5005892;23;20473;-92
2023/04/13 03:17:50;;;;;;;5.70;1.30;;;;;;;5.03;100.00;99479.34;4990880;28;20053;-91
2023/04/13 04:15:55;;;;;;;12.43;4.53;;;;;;;4.42;100.00;99568.72;5010073;28;20660;-96
2023/04/13 04:22:43;;;;;;;;;;;;;;;;;;;;;
2023/04/13 05:33:26;;;;;;;16.48;5.90;;;;;;;4.47;100.00;99663.47;5035332;23;20053;-87
2023/04/13 05:35:52;;;;;;;17.77;7.00;;;;;;;4.63;100.00;99664.50;5011146;28;20304;-87
2023/04/13 05:38:17;;;;;;;12.70;6.30;;;;;;;4.73;100.00;99666.47;4997512;28;20052;-86
2023/04/13 05:40:54;;;;;;;15.90;6.13;;;;;;;4.62;100.00;99637.13;5306983;23;20069;-86
2023/04/13 05:46:40;;;;;;;14.07;5.28;;;;;;;4.87;100.00;99674.84;4994074;28;20497;-85
2023/04/13 05:56:16;;;;;;;6.87;3.30;;;;;;;5.02;100.00;99693.63;4974186;28;20042;-84
2023/04/13 06:02:15;;;;;;;11.50;4.00;;;;;;;5.28;100.00;99710.63;5880042;23;21272;-87
2023/04/13 06:20:11;;;;;;;5.30;2.40;;;;;;;5.24;100.00;99730.78;5704141;23;20038;-86
2023/04/13 06:22:40;;;;;;;10.63;2.87;;;;;;;5.29;100.00;99741.47;5012908;28;21001;-86
2023/04/13 06:25:10;;;;;;;5.93;2.50;;;;;;;5.24;100.00;99727.28;5013091;28;20036;-86
2023/04/13 06:27:45;;;;;;;6.88;2.83;;;;;;;5.42;100.00;99752.72;5012417;28;20076;-86
2023/04/13 06:33:50;;;;;;;5.45;2.40;;;;;;;5.42;100.00;99731.47;4972459;28;20501;-86
2023/04/13 06:36:16;;;;;;;9.65;3.03;;;;;;;5.59;100.00;99740.16;4973852;28;20054;-86
2023/04/13 06:55:43;;;;;;;11.95;2.40;;;;;;;6.00;100.00;99802.78;5014184;28;20049;-86
2023/04/13 06:58:10;;;;;;;7.55;2.60;;;;;;;5.88;100.00;99785.06;4987359;28;20042;-86
2023/04/13 07:04:05;;;;;;;8.10;2.50;;;;;;;6.00;100.00;99802.78;4967749;28;20129;-86
2023/04/13 07:07:24;;;;;;;4.33;2.17;;;;;;;6.08;100.00;99810.28;4949223;28;20081;-85
2023/04/13 07:40:52;;;;;;;10.85;2.95;;;;;;;6.71;100.00;99862.94;5675840;23;20038;-87
2023/04/13 07:43:17;;;;;;;6.40;2.40;;;;;;;6.78;100.00;99882.16;4996646;28;20030;-86
2023/04/13 07:45:42;;;;;;;9.33;3.03;;;;;;;6.87;100.00;99879.03;4992145;28;20042;-86
2023/04/13 07:48:08;;;;;;;11.07;2.78;;;;;;;6.91;100.00;99880.13;4991689;28;20112;-85
2023/04/13 07:54:17;;;;;;;12.85;3.15;;;;;;;7.01;100.00;99882.84;4996502;28;20092;-85
2023/04/13 08:00:46;;;;;;;10.13;2.58;;;;;;;7.15;100.00;99901.84;4978942;28;20037;-85
2023/04/13 08:03:56;;;;;;;15.87;2.80;;;;;;;7.39;100.00;99910.25;4970989;28;20035;-86
2023/04/13 08:06:22;;;;;;;10.03;3.10;;;;;;;7.65;100.00;99909.56;5007019;22;20292;-86
2023/04/13 08:08:47;;;;;;;9.65;2.20;;;;;;;7.86;100.00;99918.44;4990572;28;20187;-85
2023/04/13 08:11:13;;;;;;;12.70;2.60;;;;;;;7.95;100.00;99934.72;4991694;28;20053;-86
2023/04/13 08:13:38;;;;;;;9.10;2.63;;;;;;;8.02;100.00;99930.78;5010328;28;20445;-85
2023/04/13 08:16:04;;;;;;;11.00;2.47;;;;;;;8.18;100.00;99928.16;4991661;28;20045;-85
2023/04/13 08:18:31;;;;;;;10.23;2.67;;;;;;;8.37;100.00;99941.00;4991270;28;20027;-85
2023/04/13 08:21:00;;;;;;;13.65;2.45;;;;;;;8.47;100.00;99941.81;4991021;28;20026;-85
2023/04/13 08:23:26;;;;;;;18.43;2.80;;;;;;;8.45;100.00;99938.59;4992098;28;20038;-86
2023/04/13 08:25:51;;;;;;;12.13;2.53;;;;;;;8.37;100.00;99951.66;4991961;28;20292;-85
2023/04/13 08:28:16;;;;;;;11.77;2.58;;;;;;;8.43;100.00;99946.06;4989734;28;20037;-85
2023/04/13 08:30:42;;;;;;;10.87;2.40;;;;;;;8.44;100.00;99954.88;4990138;28;20034;-85
2023/04/13 08:33:07;;;;;;;13.10;2.50;;;;;;;8.54;100.00;99957.59;4992076;28;20121;-85
2023/04/13 08:35:35;;;;;;;17.20;2.73;;;;;;;8.85;100.00;99967.50;4994836;28;20107;-85
2023/04/13 08:38:01;;;;;;;15.10;2.47;;;;;;;9.00;100.00;99974.69;4990658;28;20360;-85
2023/04/13 08:43:47;;;;;;;8.15;2.35;;;;;;;9.18;100.00;99979.50;4989391;28;20046;-85
2023/04/13 08:46:18;;;;;;;11.45;2.70;;;;;;;9.07;100.00;99989.38;4990797;28;20038;-84
2023/04/13 08:49:10;;;;;;;12.02;2.58;;;;;;;8.97;100.00;99993.94;4981544;28;20030;-84
2023/04/13 08:51:37;;;;;;;14.80;2.75;;;;;;;9.13;100.00;99992.84;4928867;28;20051;-85
2023/04/13 08:54:02;;;;;;;14.45;2.50;;;;;;;9.41;100.00;99993.38;4957597;28;20522;-84
2023/04/13 08:56:29;;;;;;;14.93;2.83;;;;;;;9.53;100.00;99998.44;4961785;28;20101;-85
2023/04/13 08:59:06;;;;;;;14.05;2.00;;;;;;;9.53;100.00;100012.59;4961342;28;20032;-85
2023/04/13 09:01:33;;;;;;;14.27;2.30;;;;;;;9.50;100.00;100010.47;4953425;28;20046;-86
2023/04/13 09:04:07;;;;;;;10.88;2.05;;;;;;;9.63;100.00;100021.69;4971643;28;20042;-85
2023/04/13 09:06:36;;;;;;;9.60;1.70;;;;;;;9.66;100.00;100024.63;4971009;28;20038;-85
2023/04/13 09:09:09;;;;;;;16.08;2.38;;;;;;;9.65;100.00;100025.69;4974766;28;20050;-85
2023/04/13 09:11:36;;;;;;;12.70;1.93;;;;;;;9.84;100.00;100022.44;4965016;28;20483;-85
2023/04/13 09:14:01;;;;;;;8.17;2.00;;;;;;;10.11;100.00;100027.41;4975238;28;20278;-85
2023/04/13 09:16:27;;;;;;;16.83;2.17;;;;;;;10.49;100.00;100034.22;4988453;28;20500;-85
2023/04/13 09:18:55;;;;;;;11.00;1.97;;;;;;;10.73;100.00;100045.88;4972420;28;20027;-85
2023/04/13 09:21:36;;;;;;;12.63;1.95;;;;;;;10.94;100.00;100051.13;4974911;28;20022;-85
2023/04/13 09:24:01;;;;;;;10.35;1.70;;;;;;;10.93;94.40;100048.69;4980544;28;20059;-85
2023/04/13 09:26:27;;;;;;;9.83;2.00;;;;;;;10.93;95.39;100041.47;4959939;28;20070;-85
2023/04/13 09:28:56;;;;;;;14.88;1.95;;;;;;;10.78;94.52;100045.06;4956108;28;20031;-84
2023/04/13 09:31:21;;;;;;;10.43;1.70;;;;;;;10.64;96.22;100062.81;4954812;28;20031;-84
2023/04/13 09:33:50;;;;;;;8.27;1.70;;;;;;;10.45;98.17;100066.13;4961963;28;20255;-85
2023/04/13 09:36:21;;;;;;;15.05;1.90;;;;;;;10.29;97.41;100074.22;4970035;28;20118;-85
2023/04/13 09:38:56;;;;;;;13.57;2.05;;;;;;;10.13;97.13;100065.44;5076820;23;20651;-84
2023/04/13 09:45:23;;;;;;;12.40;1.90;;;;;;;10.20;99.83;100069.69;4974671;28;20101;-85
2023/04/13 09:47:51;;;;;;;9.77;1.80;;;;;;;10.20;97.51;100093.78;4973584;28;20313;-85
2023/04/13 09:50:43;;;;;;;12.13;2.40;;;;;;;10.02;97.43;100106.69;4976688;28;20054;-84
2023/04/13 09:53:41;;;;;;;10.65;2.03;;;;;;;9.69;98.78;100098.97;4974041;28;20490;-85
2023/04/13 09:56:46;;;;;;;11.60;2.13;;;;;;;9.54;98.00;100107.81;4974295;28;20089;-86
2023/04/13 09:59:15;;;;;;;10.38;1.83;;;;;;;9.70;98.52;100121.19;4970177;28;20129;-86
2023/04/13 10:01:59;;;;;;;14.73;2.17;;;;;;;9.93;100.00;100119.00;4975103;28;20098;-84
2023/04/13 10:04:29;;;;;;;10.13;1.80;;;;;;;9.91;96.14;100124.66;4972737;28;20398;-86
2023/04/13 10:07:00;;;;;;;13.52;1.92;;;;;;;9.63;97.60;100137.50;4972258;28;20030;-86
2023/04/13 10:09:35;;;;;;;12.93;1.92;;;;;;;9.25;100.00;100128.94;4973962;28;20027;-86
2023/04/13 10:12:25;;;;;;;10.23;2.47;;;;;;;9.00;100.00;100140.38;4988774;28;20038;-86
2023/04/13 10:20:17;;;;;;;13.48;2.83;;;;;;;9.59;100.00;100163.16;5470792;23;20058;-85
2023/04/13 10:22:45;;;;;;;12.82;2.45;;;;;;;9.74;100.00;100154.34;4994436;28;20030;-84
2023/04/13 10:27:55;;;;;;;18.83;2.90;;;;;;;10.31;100.00;100164.97;5318163;23;20042;-85
2023/04/13 10:30:21;;;;;;;14.07;2.85;;;;;;;10.54;97.70;100160.91;4993011;28;20038;-84
2023/04/13 10:32:47;;;;;;;9.10;2.45;;;;;;;10.58;94.57;100167.31;4992937;28;20397;-84
2023/04/13 10:35:14;;;;;;;12.07;3.33;;;;;;;10.50;92.78;100169.78;4993087;28;20029;-84
2023/04/13 10:37:40;;;;;;;12.35;2.80;;;;;;;10.33;97.21;100180.75;4989471;28;20041;-84
2023/04/13 10:40:12;;;;;;;12.07;3.20;;;;;;;10.33;97.60;100183.44;4993082;28;20033;-84
2023/04/13 10:42:46;;;;;;;11.43;2.97;;;;;;;10.38;94.26;100184.28;4992984;28;20022;-84
2023/04/13 10:45:24;;;;;;;14.10;3.60;;;;;;;10.64;94.05;100192.22;4992914;28;20761;-84
2023/04/13 10:47:51;;;;;;;13.20;3.00;;;;;;;11.03;94.00;100190.72;4993091;28;20100;-84
2023/04/13 10:50:32;;;;;;;9.75;2.80;;;;;;;11.40;91.93;100184.06;5845705;23;20050;-85
2023/04/13 10:53:05;;;;;;;12.38;2.80;;;;;;;11.77;91.38;100192.63;4952439;28;20689;-85
2023/04/13 10:55:32;;;;;;;13.77;2.90;;;;;;;12.05;86.64;100201.03;4953141;29;20051;-84
2023/04/13 10:57:58;;;;;;;13.13;3.10;;;;;;;12.04;84.05;100208.28;4961482;28;20034;-84
2023/04/13 11:00:26;;;;;;;15.75;3.15;;;;;;;11.79;81.71;100203.91;4953686;29;20102;-85
2023/04/13 11:02:55;;;;;;;13.65;3.10;;;;;;;11.61;87.38;100206.19;4950626;29;20471;-86
2023/04/13 11:05:21;;;;;;;12.63;3.10;;;;;;;11.51;87.57;100216.97;4953168;28;20042;-85
2023/04/13 11:07:49;;;;;;;15.33;2.77;;;;;;;11.30;84.50;100227.03;4949332;28;20039;-85
2023/04/13 11:10:28;;;;;;;14.23;2.73;;;;;;;11.32;89.95;100228.34;4943197;29;20294;-85
2023/04/13 11:12:56;;;;;;;13.05;2.53;;;;;;;11.48;91.24;100230.97;4953281;28;20574;-86
2023/04/13 11:15:23;;;;;;;7.43;2.15;;;;;;;11.87;87.59;100238.19;4952898;29;20028;-85
2023/04/13 11:17:52;;;;;;;12.10;2.33;;;;;;;12.13;83.47;100231.84;4952561;29;20106;-85
2023/04/13 11:20:18;;;;;;;14.90;2.30;;;;;;;12.26;84.34;100237.34;5604498;23;20509;-86
2023/04/13 11:22:44;;;;;;;10.25;1.65;;;;;;;12.40;84.74;100231.31;5001673;28;20069;-85
2023/04/13 11:25:10;;;;;;;11.23;2.13;;;;;;;12.48;79.36;100236.06;5006171;28;20112;-85
2023/04/13 11:27:36;;;;;;;7.30;2.00;;;;;;;12.33;79.18;100244.28;5009169;28;20288;-86
2023/04/13 11:30:57;;;;;;;7.20;2.10;;;;;;;11.96;85.20;100244.56;5279594;22;20046;-85
2023/04/13 11:33:32;;;;;;;13.93;2.10;;;;;;;11.87;87.91;100230.13;5007079;28;20034;-85
2023/04/13 11:36:31;;;;;;;8.05;1.85;;;;;;;11.76;83.82;100223.25;5006926;28;20025;-85
2023/04/13 11:38:58;;;;;;;9.32;1.50;;;;;;;11.88;78.32;100231.72;4985342;23;20051;-86
2023/04/13 11:41:26;;;;;;;8.07;1.80;;;;;;;12.02;74.95;100241.88;4998727;28;20554;-86
2023/04/13 11:43:52;;;;;;;9.87;2.13;;;;;;;12.14;78.08;100236.91;4972188;28;20124;-86
2023/04/13 11:46:23;;;;;;;11.73;1.93;;;;;;;12.20;76.60;100240.34;4971840;28;20313;-86
2023/04/13 11:48:52;;;;;;;14.98;2.65;;;;;;;12.25;75.92;100235.72;5200144;23;20124;-85
2023/04/13 11:51:21;;;;;;;9.68;2.42;;;;;;;12.46;80.10;100240.91;4990775;28;20037;-85
2023/04/13 11:53:50;;;;;;;14.20;2.60;;;;;;;12.65;75.25;100242.84;4989211;28;20093;-86
2023/04/13 11:56:15;;;;;;;8.95;2.13;;;;;;;12.82;72.20;100235.13;4989795;28;20030;-86
2023/04/13 12:01:17;;;;;;;11.10;2.40;;;;;;;13.26;68.35;100244.00;5340233;22;20054;-85
2023/04/13 12:03:42;;;;;;;8.38;2.55;;;;;;;13.45;71.73;100240.53;4969609;28;20371;-86
2023/04/13 12:06:07;;;;;;;8.07;1.80;;;;;;;13.56;65.55;100246.56;4971456;28;20033;-86
2023/04/13 12:08:33;;;;;;;11.93;2.47;;;;;;;13.61;69.15;100241.13;4970305;28;20031;-86
2023/04/13 12:11:04;;;;;;;10.33;2.50;;;;;;;13.46;70.00;100248.34;4970626;28;20110;-85
2023/04/13 12:13:52;;;;;;;7.20;2.08;;;;;;;12.78;73.10;100254.81;4971114;28;20031;-85
2023/04/13 12:16:28;;;;;;;11.55;1.77;;;;;;;11.82;77.99;100255.13;4990428;28;20056;-86
2023/04/13 12:18:54;;;;;;;7.22;1.58;;;;;;;11.33;83.32;100256.00;4995096;23;20046;-85
2023/04/13 12:21:20;;;;;;;8.90;1.85;;;;;;;11.10;80.25;100265.50;4986993;28;20018;-85
2023/04/13 12:31:37;;;;;;;9.82;1.70;;;;;;;12.50;76.86;100260.75;5064582;22;20046;-85
2023/04/13 12:34:03;;;;;;;9.10;1.92;;;;;;;12.88;69.49;100254.69;4990408;28;20029;-86
2023/04/13 12:36:30;;;;;;;7.15;1.55;;;;;;;13.26;66.42;100253.97;4989737;28;20022;-86
2023/04/13 12:38:58;;;;;;;14.45;1.83;;;;;;;13.53;68.36;100263.31;4990504;28;20474;-84
2023/04/13 12:41:23;;;;;;;6.03;1.45;;;;;;;13.70;65.97;100263.59;4989823;28;20022;-86
2023/04/13 12:43:49;;;;;;;6.30;1.20;;;;;;;13.78;65.65;100268.31;4989922;28;20085;-87
2023/04/13 12:46:14;;;;;;;6.32;1.20;;;;;;;13.66;63.19;100278.75;4990273;28;20093;-86
2023/04/13 13:13:29;;;;;;;10.30;1.65;;;;;;;14.46;62.81;100304.94;4988191;28;20069;-86
2023/04/13 13:16:10;;;;;;;7.18;1.88;;;;;;;14.25;61.13;100278.31;4990464;28;20058;-87
2023/04/13 13:18:38;;;;;;;6.03;1.30;;;;;;;13.89;59.46;100293.19;4989053;28;20478;-87
2023/04/13 13:34:48;;;;;;;;;;;;;;;;;;;;;
2023/04/13 13:38:20;;;;;;;;;;;;;;;;;;;;;
2023/04/13 13:44:07;;;;;;;7.30;1.50;;;;;;;14.13;57.55;100307.66;4926536;29;20419;-89
2023/04/13 14:07:07;;;;;;;7.25;1.98;;;;;;;15.50;52.45;100320.75;5133785;23;20493;-93
2023/04/13 14:09:35;;;;;;;7.15;2.33;;;;;;;15.33;48.79;100302.50;4993944;28;20038;-91
2023/04/13 14:12:24;;;;;;;4.70;2.23;;;;;;;15.29;49.78;100321.19;4991645;28;20077;-91
2023/04/13 14:15:07;;;;;;;8.60;2.17;;;;;;;15.37;51.98;100295.38;4964754;28;20867;-92
2023/04/13 14:24:25;;;;;;;10.60;2.13;;;;;;;15.98;50.56;100321.34;4977071;28;20291;-92
2023/04/13 14:32:51;;;;;;;;;;;;;;;;;;;;;
2023/04/13 14:38:53;;;;;;;8.43;2.07;;;;;;;16.41;43.23;100312.72;4988773;28;20050;-91
2023/04/13 14:45:31;;;;;;;5.07;1.73;;;;;;;16.38;42.22;100337.69;4959764;28;20101;-89
2023/04/13 14:51:12;;;;;;;3.90;1.80;;;;;;;16.67;42.77;100347.19;5030092;23;20050;-92
2023/04/13 14:54:08;;;;;;;6.85;1.75;;;;;;;16.60;41.47;100353.06;4993875;28;20038;-92
2023/04/13 15:23:27;;;;;;;6.53;1.80;;;;;;;15.21;41.10;100361.59;4990463;28;20062;-91
2023/04/13 15:25:52;;;;;;;7.30;1.87;;;;;;;15.21;41.47;100365.06;4992673;28;20092;-92
2023/04/13 15:38:35;;;;;;;7.32;1.75;;;;;;;16.08;40.50;100355.44;4896220;29;20127;-88
2023/04/13 15:41:00;;;;;;;3.25;1.40;;;;;;;15.94;39.92;100371.69;4892930;29;20038;-86
2023/04/13 15:43:31;;;;;;;6.83;1.80;;;;;;;15.88;40.01;100358.31;4893358;29;20479;-88
2023/04/13 15:46:12;;;;;;;4.90;1.80;;;;;;;15.87;41.96;100356.72;4893393;29;20028;-86
2023/04/13 15:52:08;;;;;;;6.53;1.57;;;;;;;16.11;40.75;100379.16;4893552;29;20050;-85
2023/04/13 15:54:39;;;;;;;3.30;1.40;;;;;;;16.06;40.58;100377.38;4896205;28;20300;-85
2023/04/13 15:59:40;;;;;;;3.70;1.50;;;;;;;16.54;39.10;100388.66;5560101;22;20054;-85
2023/04/13 16:02:06;;;;;;;4.22;1.60;;;;;;;16.54;37.88;100377.84;4990944;28;20488;-84
2023/04/13 16:04:31;;;;;;;7.13;1.40;;;;;;;16.40;39.51;100373.31;4991702;28;20026;-88
2023/04/13 16:06:56;;;;;;;3.60;1.40;;;;;;;16.38;37.29;100374.72;4989495;28;20030;-88
2023/04/13 16:09:23;;;;;;;5.47;1.50;;;;;;;16.29;36.61;100372.75;4987960;28;20083;-87
2023/04/13 16:11:49;;;;;;;4.25;1.83;;;;;;;16.35;39.68;100379.63;4987092;28;20037;-87
2023/04/13 16:14:16;;;;;;;5.57;1.33;;;;;;;16.34;38.22;100375.31;4988554;28;20037;-88
2023/04/13 16:16:52;;;;;;;5.88;1.42;;;;;;;16.27;39.94;100383.09;4990897;28;20034;-88
2023/04/13 16:19:18;;;;;;;4.13;1.63;;;;;;;15.93;39.37;100384.41;4990306;28;20030;-89
2023/04/13 16:21:45;;;;;;;4.78;1.67;;;;;;;15.54;40.75;100386.53;4989352;28;20074;-88
2023/04/13 16:24:10;;;;;;;4.55;1.40;;;;;;;15.21;40.94;100385.88;4990750;28;20054;-89
2023/04/13 16:26:36;;;;;;;8.83;1.67;;;;;;;15.17;42.78;100393.75;4989255;28;20114;-89
2023/04/13 16:29:02;;;;;;;8.87;1.60;;;;;;;15.12;41.32;100385.78;4989699;28;20304;-88
2023/04/13 16:31:28;;;;;;;7.00;1.40;;;;;;;15.37;42.57;100389.88;4991235;28;20096;-88
2023/04/13 16:33:53;;;;;;;3.90;1.60;;;;;;;15.74;43.43;100401.53;4989967;28;20030;-89
2023/04/13 16:36:19;;;;;;;5.40;1.53;;;;;;;15.80;42.00;100402.22;4973878;28;20474;-89
2023/04/13 16:38:45;;;;;;;6.80;1.70;;;;;;;15.63;40.29;100404.75;4992640;28;20062;-88
2023/04/13 16:44:40;;;;;;;5.07;1.48;;;;;;;15.26;41.77;100386.56;5023038;23;20080;-89
2023/04/13 16:52:42;;;;;;;6.05;1.67;;;;;;;15.15;41.09;100406.75;4991853;28;20052;-91
2023/04/13 16:58:13;;;;;;;5.73;1.60;;;;;;;14.57;42.27;100414.22;5784753;22;20305;-92
2023/04/13 17:00:39;;;;;;;5.63;1.30;;;;;;;14.24;41.27;100423.06;4991046;28;20076;-87
2023/04/13 17:03:04;;;;;;;4.30;1.60;;;;;;;14.20;41.62;100421.25;4989559;28;20034;-95
2023/04/13 17:21:59;;;;;;;2.90;1.33;;;;;;;14.04;44.45;100439.50;5346252;22;20065;-89
2023/04/13 17:24:36;;;;;;;7.75;1.48;;;;;;;13.44;44.67;100422.75;4957141;28;20050;-88
2023/04/13 17:29:56;;;;;;;8.83;1.37;;;;;;;12.87;48.07;100425.19;5018137;22;20308;-87
2023/04/13 17:32:40;;;;;;;5.43;1.50;;;;;;;12.76;48.84;100448.69;4994191;28;20057;-89
